createdAt,value
2017-10-31T00:01:56.687Z,9.00
2017-10-31T00:04:25.735Z,9.10
2017-10-31T00:06:54.056Z,9.00
2017-10-31T00:09:22.374Z,9.10
2017-10-31T00:11:51.806Z,9.20
2017-10-31T00:14:20.891Z,9.20
2017-10-31T00:16:49.208Z,9.30
2017-10-31T00:19:17.878Z,9.20
2017-10-31T00:21:46.595Z,9.20
2017-10-31T00:24:14.910Z,9.20
2017-10-31T00:26:43.192Z,9.30
2017-10-31T00:29:11.503Z,9.30
2017-10-31T00:31:39.828Z,9.40
2017-10-31T00:34:08.118Z,9.30
2017-10-31T00:36:36.430Z,9.20
2017-10-31T00:39:05.898Z,9.10
2017-10-31T00:44:05.239Z,9.20
2017-10-31T00:46:33.558Z,9.20
2017-10-31T00:49:01.847Z,9.30
2017-10-31T00:51:30.154Z,9.20
2017-10-31T00:53:58.478Z,9.20
2017-10-31T00:56:27.918Z,9.30
2017-10-31T00:58:56.999Z,9.20
2017-10-31T01:01:25.329Z,9.20
2017-10-31T01:03:54.374Z,9.20
2017-10-31T01:06:22.683Z,9.30
2017-10-31T01:08:51.031Z,9.50
2017-10-31T01:11:19.302Z,9.40
2017-10-31T01:13:47.586Z,9.40
2017-10-31T01:16:15.939Z,9.40
2017-10-31T01:18:44.215Z,9.30
2017-10-31T01:21:14.007Z,9.30
2017-10-31T01:23:43.095Z,9.40
2017-10-31T01:26:11.377Z,9.30
2017-10-31T01:28:39.648Z,9.20
2017-10-31T01:31:08.743Z,9.20
2017-10-31T01:33:37.779Z,9.20
2017-10-31T01:36:07.576Z,9.30
2017-10-31T01:38:35.938Z,9.40
2017-10-31T01:41:04.214Z,9.50
2017-10-31T01:43:33.262Z,9.50
2017-10-31T01:46:02.363Z,9.60
2017-10-31T01:51:01.292Z,9.70
2017-10-31T01:53:30.512Z,9.70
2017-10-31T01:55:59.184Z,9.80
2017-10-31T01:58:27.463Z,9.80
2017-10-31T02:00:55.796Z,9.70
2017-10-31T02:03:24.083Z,9.70
2017-10-31T02:05:52.358Z,9.60
2017-10-31T02:08:21.080Z,9.70
2017-10-31T02:13:19.642Z,9.70
2017-10-31T02:15:47.974Z,9.60
2017-10-31T02:18:16.256Z,9.50
2017-10-31T02:20:44.538Z,9.40
2017-10-31T02:23:12.878Z,9.60
2017-10-31T02:25:41.930Z,9.70
2017-10-31T02:28:10.202Z,9.80
2017-10-31T02:30:38.551Z,9.90
2017-10-31T02:33:07.615Z,9.90
2017-10-31T02:35:36.658Z,9.80
2017-10-31T02:38:05.000Z,9.80
2017-10-31T02:40:34.786Z,9.80
2017-10-31T02:43:03.468Z,9.80
2017-10-31T02:45:31.797Z,9.90
2017-10-31T02:48:00.080Z,9.80
2017-10-31T02:50:28.362Z,9.70
2017-10-31T02:52:57.104Z,9.70
2017-10-31T02:55:25.391Z,9.70
2017-10-31T02:57:53.671Z,9.80
2017-10-31T03:00:23.515Z,9.80
2017-10-31T03:02:52.566Z,9.70
2017-10-31T03:05:20.848Z,9.50
2017-10-31T03:07:50.217Z,9.50
2017-10-31T03:10:18.503Z,9.40
2017-10-31T03:12:46.785Z,9.40
2017-10-31T03:15:15.128Z,9.40
2017-10-31T03:17:43.411Z,9.40
2017-10-31T03:20:11.691Z,9.40
2017-10-31T03:22:40.494Z,9.40
2017-10-31T03:25:09.546Z,9.50
2017-10-31T03:27:37.825Z,9.60
2017-10-31T03:30:06.160Z,9.60
2017-10-31T03:32:35.202Z,9.60
2017-10-31T03:35:03.507Z,9.50
2017-10-31T03:37:31.874Z,9.60
2017-10-31T03:40:01.287Z,9.60
2017-10-31T03:42:29.571Z,9.60
2017-10-31T03:44:57.898Z,9.60
2017-10-31T03:47:26.172Z,9.70
2017-10-31T03:49:55.583Z,9.70
2017-10-31T03:52:24.323Z,9.70
2017-10-31T03:54:52.590Z,9.80
2017-10-31T03:57:20.870Z,9.70
2017-10-31T03:59:49.211Z,9.80
2017-10-31T04:02:18.250Z,9.80
2017-10-31T04:04:47.309Z,9.70
2017-10-31T04:07:15.639Z,9.70
2017-10-31T04:09:43.923Z,9.70
2017-10-31T04:12:12.983Z,9.80
2017-10-31T04:14:42.082Z,9.80
2017-10-31T04:17:10.359Z,9.70
2017-10-31T04:19:39.032Z,9.70
2017-10-31T04:22:07.375Z,9.80
2017-10-31T04:24:35.660Z,9.80
2017-10-31T04:27:03.942Z,9.70
2017-10-31T04:29:32.266Z,9.80
2017-10-31T04:32:00.542Z,9.70
2017-10-31T04:34:28.879Z,9.70
2017-10-31T04:36:57.208Z,9.70
2017-10-31T04:39:26.258Z,9.70
2017-10-31T04:41:54.534Z,9.70
2017-10-31T04:44:22.879Z,9.70
2017-10-31T04:46:51.162Z,9.70
2017-10-31T04:49:19.435Z,9.70
2017-10-31T04:51:47.870Z,9.70
2017-10-31T04:54:16.550Z,9.80
2017-10-31T04:56:44.831Z,9.70
2017-10-31T04:59:13.175Z,9.80
2017-10-31T05:01:42.227Z,9.90
2017-10-31T05:04:10.506Z,9.80
2017-10-31T05:06:38.859Z,9.90
2017-10-31T05:09:07.134Z,9.90
2017-10-31T05:11:35.422Z,9.90
2017-10-31T05:14:03.752Z,9.90
2017-10-31T05:16:32.026Z,9.90
2017-10-31T05:19:00.318Z,9.90
2017-10-31T05:21:30.323Z,9.80
2017-10-31T05:23:58.983Z,9.90
2017-10-31T05:26:27.267Z,9.90
2017-10-31T05:28:56.429Z,9.90
2017-10-31T05:33:54.631Z,10.00
2017-10-31T05:36:23.751Z,10.00
2017-10-31T05:38:52.812Z,10.00
2017-10-31T05:41:21.099Z,9.90
2017-10-31T05:43:51.378Z,10.00
2017-10-31T05:46:19.672Z,10.00
2017-10-31T05:48:47.959Z,10.10
2017-10-31T05:51:16.295Z,10.10
2017-10-31T05:54:35.871Z,10.00
2017-10-31T05:57:04.218Z,10.10
2017-10-31T05:59:32.504Z,10.00
2017-10-31T06:02:00.802Z,10.00
2017-10-31T06:04:29.307Z,10.00
2017-10-31T06:06:57.990Z,10.00
2017-10-31T06:09:26.688Z,10.00
2017-10-31T06:11:55.027Z,10.00
2017-10-31T06:14:23.318Z,10.00
2017-10-31T06:16:51.612Z,10.00
2017-10-31T06:19:21.695Z,9.90
2017-10-31T06:24:31.088Z,9.90
2017-10-31T06:29:40.735Z,9.90
2017-10-31T06:32:16.378Z,9.90
2017-10-31T06:34:51.410Z,9.80
2017-10-31T06:37:20.231Z,9.80
2017-10-31T06:39:48.519Z,9.80
2017-10-31T06:44:46.370Z,9.80
2017-10-31T06:47:14.650Z,9.90
2017-10-31T06:49:44.530Z,9.90
2017-10-31T06:52:13.959Z,9.90
2017-10-31T06:54:42.240Z,9.90
2017-10-31T06:57:11.338Z,10.00
2017-10-31T06:59:39.959Z,10.00
2017-10-31T07:02:08.254Z,10.00
2017-10-31T07:04:36.594Z,10.00
2017-10-31T07:07:05.646Z,10.00
2017-10-31T07:09:33.930Z,10.00
2017-10-31T07:12:03.047Z,10.00
2017-10-31T07:14:32.110Z,10.00
2017-10-31T07:17:01.162Z,10.00
2017-10-31T07:19:29.498Z,10.00
2017-10-31T07:21:57.796Z,10.10
2017-10-31T07:26:55.670Z,10.10
2017-10-31T07:29:24.350Z,10.20
2017-10-31T07:31:53.407Z,10.10
2017-10-31T07:34:22.895Z,10.10
2017-10-31T07:36:51.947Z,10.20
2017-10-31T07:41:50.212Z,10.20
2017-10-31T07:44:18.506Z,10.20
2017-10-31T07:46:46.807Z,10.20
2017-10-31T07:49:15.150Z,10.20
2017-10-31T07:51:43.443Z,10.30
2017-10-31T07:54:11.730Z,10.30
2017-10-31T07:56:40.074Z,10.20
2017-10-31T07:59:09.879Z,10.20
2017-10-31T08:01:38.167Z,10.30
2017-10-31T08:06:37.550Z,10.20
2017-10-31T08:09:05.839Z,10.30
2017-10-31T08:11:34.182Z,10.40
2017-10-31T08:14:02.483Z,10.30
2017-10-31T08:16:30.778Z,10.30
2017-10-31T08:18:59.131Z,10.40
2017-10-31T08:21:28.201Z,10.40
2017-10-31T08:23:57.242Z,10.40
2017-10-31T08:26:26.531Z,10.40
2017-10-31T08:28:55.582Z,10.40
2017-10-31T08:31:25.011Z,10.40
2017-10-31T08:33:53.367Z,10.40
2017-10-31T08:36:22.786Z,10.40
2017-10-31T08:38:51.077Z,10.50
2017-10-31T08:41:19.418Z,10.50
2017-10-31T08:43:49.211Z,10.50
2017-10-31T08:46:17.495Z,10.50
2017-10-31T08:48:45.835Z,10.50
2017-10-31T08:51:14.119Z,10.60
2017-10-31T08:53:44.213Z,10.60
2017-10-31T08:58:42.490Z,10.70
2017-10-31T09:01:10.774Z,10.70
2017-10-31T09:03:39.111Z,10.70
2017-10-31T09:06:08.167Z,10.70
2017-10-31T09:08:36.460Z,10.70
2017-10-31T09:11:04.794Z,10.80
2017-10-31T09:16:03.357Z,10.80
2017-10-31T09:18:32.469Z,11.00
2017-10-31T09:23:30.666Z,11.20
2017-10-31T09:25:59.947Z,11.20
2017-10-31T09:28:29.367Z,11.10
2017-10-31T09:30:57.650Z,11.10
2017-10-31T09:33:26.790Z,11.20
2017-10-31T09:35:56.206Z,11.40
2017-10-31T09:40:54.474Z,11.50
2017-10-31T09:43:22.776Z,11.60
2017-10-31T09:45:51.826Z,11.70
2017-10-31T09:48:20.162Z,11.80
2017-10-31T09:50:49.988Z,12.00
2017-10-31T09:53:18.268Z,12.00
2017-10-31T09:55:46.599Z,12.20
2017-10-31T09:58:14.885Z,12.30
2017-10-31T10:00:43.181Z,12.40
2017-10-31T10:03:11.511Z,12.40
2017-10-31T10:05:39.786Z,12.40
2017-10-31T10:08:08.843Z,12.40
2017-10-31T10:10:37.614Z,12.30
2017-10-31T10:13:05.900Z,12.40
2017-10-31T10:15:34.179Z,12.40
2017-10-31T10:18:03.441Z,12.50
2017-10-31T10:20:32.123Z,12.40
2017-10-31T10:23:01.535Z,12.40
2017-10-31T10:25:29.867Z,12.50
2017-10-31T10:27:58.151Z,12.50
2017-10-31T10:30:27.203Z,12.40
2017-10-31T10:32:55.922Z,12.40
2017-10-31T10:35:24.198Z,12.40
2017-10-31T10:37:52.477Z,12.40
2017-10-31T10:40:20.819Z,12.60
2017-10-31T10:42:49.098Z,12.50
2017-10-31T10:45:17.407Z,12.50
2017-10-31T10:47:48.842Z,12.60
2017-10-31T10:50:17.119Z,12.50
2017-10-31T10:52:45.395Z,12.40
2017-10-31T10:55:13.725Z,12.40
2017-10-31T10:57:42.011Z,12.50
2017-10-31T11:00:10.311Z,12.40
2017-10-31T11:02:39.426Z,12.40
2017-10-31T11:05:08.471Z,12.30
2017-10-31T11:07:36.749Z,12.50
2017-10-31T11:10:05.471Z,12.50
2017-10-31T11:12:33.768Z,12.50
2017-10-31T11:15:02.050Z,12.60
2017-10-31T11:17:30.390Z,12.50
2017-10-31T11:19:58.666Z,12.60
2017-10-31T11:22:28.086Z,12.60
2017-10-31T11:24:57.227Z,12.70
2017-10-31T11:27:26.276Z,12.80
2017-10-31T11:29:54.558Z,12.70
2017-10-31T11:32:22.894Z,12.80
2017-10-31T11:34:51.175Z,12.90
2017-10-31T11:37:19.450Z,12.90
2017-10-31T11:39:47.808Z,13.00
2017-10-31T11:42:16.094Z,13.00
2017-10-31T11:44:45.154Z,13.10
2017-10-31T11:47:13.471Z,13.10
2017-10-31T11:49:42.513Z,13.10
2017-10-31T11:52:11.927Z,13.20
2017-10-31T11:57:09.755Z,13.20
2017-10-31T12:02:08.019Z,13.20
2017-10-31T12:04:36.306Z,13.30
2017-10-31T12:07:04.983Z,13.10
2017-10-31T12:09:33.333Z,13.20
2017-10-31T12:12:02.374Z,13.10
2017-10-31T12:14:30.650Z,13.00
2017-10-31T12:16:59.734Z,13.20
2017-10-31T12:19:28.802Z,13.10
2017-10-31T12:21:57.482Z,13.20
2017-10-31T12:24:27.908Z,13.20
2017-10-31T12:29:26.099Z,13.10
2017-10-31T12:31:55.565Z,13.00
2017-10-31T12:34:23.858Z,13.00
2017-10-31T12:36:53.647Z,12.90
2017-10-31T12:39:22.016Z,13.00
2017-10-31T12:41:50.295Z,13.10
2017-10-31T12:44:20.603Z,13.20
2017-10-31T12:46:50.469Z,13.10
2017-10-31T12:49:19.891Z,13.10
2017-10-31T12:51:48.166Z,13.00
2017-10-31T12:54:16.518Z,12.90
2017-10-31T12:56:45.562Z,12.70
2017-10-31T12:59:14.631Z,12.80
2017-10-31T13:01:43.373Z,12.80
2017-10-31T13:06:41.706Z,12.90
2017-10-31T13:09:10.043Z,12.80
2017-10-31T13:11:38.318Z,12.70
2017-10-31T13:14:06.994Z,12.70
2017-10-31T13:16:35.330Z,12.70
2017-10-31T13:19:03.606Z,12.80
2017-10-31T13:21:31.895Z,12.80
2017-10-31T13:24:00.262Z,12.80
2017-10-31T13:28:58.663Z,12.50
2017-10-31T13:31:27.522Z,12.60
2017-10-31T13:33:57.248Z,12.70
2017-10-31T13:36:26.846Z,12.70
2017-10-31T13:38:55.608Z,12.80
2017-10-31T13:41:25.655Z,12.90
2017-10-31T13:43:55.538Z,12.80
2017-10-31T13:46:25.452Z,12.80
2017-10-31T13:48:53.925Z,12.90
2017-10-31T13:51:22.731Z,12.80
2017-10-31T13:53:51.123Z,12.80
2017-10-31T13:56:19.398Z,12.80
2017-10-31T13:58:47.728Z,12.90
2017-10-31T14:01:17.007Z,12.90
2017-10-31T14:03:45.583Z,12.90
2017-10-31T14:06:14.930Z,12.80
2017-10-31T14:08:43.770Z,12.80
2017-10-31T14:11:12.418Z,12.90
2017-10-31T14:13:41.992Z,12.90
2017-10-31T14:16:10.270Z,12.90
2017-10-31T14:18:38.660Z,12.70
2017-10-31T14:21:07.330Z,12.80
2017-10-31T14:23:36.114Z,12.60
2017-10-31T14:26:05.170Z,12.60
2017-10-31T14:28:33.526Z,12.60
2017-10-31T14:31:01.798Z,12.60
2017-10-31T14:33:30.077Z,12.60
2017-10-31T14:35:58.428Z,12.60
2017-10-31T14:38:26.711Z,12.70
2017-10-31T14:40:55.031Z,12.70
2017-10-31T14:43:23.363Z,12.70
2017-10-31T14:45:51.654Z,12.60
2017-10-31T14:48:19.934Z,12.70
2017-10-31T14:50:48.654Z,12.70
2017-10-31T14:53:17.724Z,12.70
2017-10-31T14:55:47.726Z,12.70
2017-10-31T14:58:16.112Z,12.60
2017-10-31T15:01:00.832Z,12.60
2017-10-31T15:03:48.224Z,12.50
2017-10-31T15:06:17.305Z,12.60
2017-10-31T15:08:45.580Z,12.50
2017-10-31T15:11:14.302Z,12.60
2017-10-31T15:13:42.591Z,12.50
2017-10-31T15:16:11.641Z,12.50
2017-10-31T15:18:40.082Z,12.50
2017-10-31T15:21:08.359Z,12.50
2017-10-31T15:23:36.661Z,12.50
2017-10-31T15:26:05.046Z,12.40
2017-10-31T15:28:33.331Z,12.40
2017-10-31T15:31:02.379Z,12.40
2017-10-31T15:33:31.899Z,12.40
2017-10-31T15:36:01.696Z,12.30
2017-10-31T15:38:29.975Z,12.40
2017-10-31T15:40:58.320Z,12.40
2017-10-31T15:43:26.592Z,12.40
2017-10-31T15:45:55.375Z,12.40
2017-10-31T15:48:24.120Z,12.40
2017-10-31T15:50:52.422Z,12.30
2017-10-31T15:53:21.373Z,12.30
2017-10-31T15:55:49.847Z,12.30
2017-10-31T15:58:18.938Z,12.40
2017-10-31T16:00:51.363Z,12.40
2017-10-31T16:03:20.060Z,12.30
2017-10-31T16:05:48.347Z,12.30
2017-10-31T16:08:17.395Z,12.20
2017-10-31T16:10:46.434Z,12.20
2017-10-31T16:13:15.480Z,12.10
2017-10-31T16:15:43.843Z,12.10
2017-10-31T16:18:12.519Z,12.20
2017-10-31T16:20:41.574Z,12.10
2017-10-31T16:23:27.171Z,12.10
2017-10-31T16:25:56.077Z,12.10
2017-10-31T16:28:24.774Z,12.20
2017-10-31T16:30:53.168Z,12.10
2017-10-31T16:33:22.988Z,12.10
2017-10-31T16:35:51.284Z,12.00
2017-10-31T16:38:20.379Z,12.00
2017-10-31T16:40:48.710Z,12.00
2017-10-31T16:43:17.782Z,12.00
2017-10-31T16:45:46.526Z,12.00
2017-10-31T16:48:15.961Z,12.00
2017-10-31T16:50:45.039Z,12.00
2017-10-31T16:53:13.375Z,12.00
2017-10-31T16:55:43.168Z,12.00
2017-10-31T16:58:11.495Z,12.00
2017-10-31T17:00:39.838Z,12.00
2017-10-31T17:03:08.890Z,12.00
2017-10-31T17:05:59.781Z,12.00
2017-10-31T17:08:28.068Z,12.00
2017-10-31T17:13:26.226Z,12.00
2017-10-31T17:15:54.502Z,12.10
2017-10-31T17:18:23.209Z,12.10
2017-10-31T17:20:52.287Z,12.00
2017-10-31T17:23:20.571Z,12.00
2017-10-31T17:25:48.932Z,12.10
2017-10-31T17:28:17.983Z,12.10
2017-10-31T17:30:46.267Z,12.10
2017-10-31T17:33:14.649Z,12.10
2017-10-31T17:35:43.686Z,12.10
2017-10-31T17:38:11.978Z,12.10
2017-10-31T17:40:41.072Z,12.20
2017-10-31T17:43:09.355Z,12.20
2017-10-31T17:45:38.027Z,12.10
2017-10-31T17:48:07.120Z,12.20
2017-10-31T17:50:35.428Z,12.10
2017-10-31T17:53:03.711Z,12.10
2017-10-31T17:55:32.059Z,12.20
2017-10-31T17:58:01.121Z,12.20
2017-10-31T18:00:29.401Z,12.10
2017-10-31T18:02:57.787Z,12.10
2017-10-31T18:05:26.071Z,12.10
2017-10-31T18:07:54.356Z,12.20
2017-10-31T18:10:22.699Z,12.10
2017-10-31T18:12:51.757Z,12.20
2017-10-31T18:15:20.811Z,12.10
2017-10-31T18:17:49.578Z,12.20
2017-10-31T18:20:21.964Z,12.20
2017-10-31T18:22:51.339Z,12.20
2017-10-31T18:25:19.629Z,12.20
2017-10-31T18:27:48.307Z,12.10
2017-10-31T18:30:16.634Z,12.10
2017-10-31T18:32:44.939Z,12.10
2017-10-31T18:35:13.223Z,12.10
2017-10-31T18:37:42.329Z,12.10
2017-10-31T18:40:10.602Z,12.10
2017-10-31T18:42:38.895Z,12.10
2017-10-31T18:45:07.267Z,12.10
2017-10-31T18:47:35.554Z,12.00
2017-10-31T18:50:04.234Z,12.10
2017-10-31T18:52:32.611Z,12.00
2017-10-31T18:55:00.959Z,12.10
2017-10-31T18:57:29.475Z,12.10
2017-10-31T18:59:57.803Z,12.10
2017-10-31T19:02:26.102Z,12.10
2017-10-31T19:04:55.147Z,12.10
2017-10-31T19:07:23.475Z,12.10
2017-10-31T19:09:52.523Z,12.10
2017-10-31T19:12:20.828Z,12.10
2017-10-31T19:14:49.178Z,12.00
2017-10-31T19:17:18.296Z,11.90
2017-10-31T19:19:46.576Z,12.00
2017-10-31T19:22:15.009Z,12.00
2017-10-31T19:24:43.339Z,12.00
2017-10-31T19:30:15.026Z,11.90
2017-10-31T19:32:43.375Z,11.80
2017-10-31T19:35:11.719Z,11.80
2017-10-31T19:37:40.427Z,11.80
2017-10-31T19:40:22.091Z,11.70
2017-10-31T19:42:50.806Z,11.70
2017-10-31T19:45:19.122Z,11.60
2017-10-31T19:47:47.747Z,11.60
2017-10-31T19:50:20.697Z,11.50
2017-10-31T19:52:49.865Z,11.60
2017-10-31T19:57:57.411Z,11.50
2017-10-31T20:00:25.770Z,11.50
2017-10-31T20:02:54.183Z,11.40
2017-10-31T20:05:23.852Z,11.40
2017-10-31T20:07:52.164Z,11.40
2017-10-31T20:10:21.970Z,11.50
2017-10-31T20:12:50.301Z,11.50
2017-10-31T20:15:18.583Z,11.50
2017-10-31T20:17:46.866Z,11.50
2017-10-31T20:20:15.194Z,11.50
2017-10-31T20:22:43.482Z,11.50
2017-10-31T20:25:12.558Z,11.50
2017-10-31T20:30:17.646Z,11.40
2017-10-31T20:32:46.442Z,11.40
2017-10-31T20:35:15.161Z,11.50
2017-10-31T20:37:43.443Z,11.50
2017-10-31T20:40:12.563Z,11.50
2017-10-31T20:42:41.619Z,11.50
2017-10-31T20:45:09.911Z,11.50
2017-10-31T20:50:07.756Z,11.50
2017-10-31T20:52:36.152Z,11.50
2017-10-31T20:55:05.027Z,11.50
2017-10-31T20:57:33.298Z,11.60
2017-10-31T21:00:01.983Z,11.60
2017-10-31T21:02:31.079Z,11.60
2017-10-31T21:05:00.343Z,11.60
2017-10-31T21:07:29.751Z,11.60
2017-10-31T21:12:28.755Z,11.70
2017-10-31T21:14:57.053Z,11.70
2017-10-31T21:17:26.198Z,11.80
2017-10-31T21:19:54.483Z,11.70
2017-10-31T21:24:53.158Z,11.70
2017-10-31T21:27:21.438Z,11.70
2017-10-31T21:29:50.481Z,11.70
2017-10-31T21:32:18.831Z,11.70
2017-10-31T21:34:47.198Z,11.80
2017-10-31T21:39:45.089Z,11.80
2017-10-31T21:42:13.415Z,11.80
2017-10-31T21:44:42.098Z,11.80
2017-10-31T21:47:10.417Z,11.80
2017-10-31T21:49:38.686Z,11.90
2017-10-31T21:52:06.975Z,11.80
2017-10-31T21:54:35.304Z,11.80
2017-10-31T21:57:03.598Z,11.80
2017-10-31T21:59:31.922Z,11.80
2017-10-31T22:02:00.884Z,11.80
2017-10-31T22:04:29.195Z,11.80
2017-10-31T22:06:58.259Z,11.90
2017-10-31T22:09:26.586Z,11.80
2017-10-31T22:11:54.886Z,11.90
2017-10-31T22:14:23.970Z,11.90
2017-10-31T22:16:53.456Z,11.90
2017-10-31T22:19:21.781Z,11.90
2017-10-31T22:21:50.111Z,11.80
2017-10-31T22:24:18.458Z,11.80
2017-10-31T22:26:47.885Z,11.80
2017-10-31T22:29:16.934Z,11.80
2017-10-31T22:31:45.261Z,11.70
2017-10-31T22:34:13.545Z,11.70
2017-10-31T22:36:42.591Z,11.70
2017-10-31T22:39:10.969Z,11.60
2017-10-31T22:41:39.262Z,11.70
2017-10-31T22:44:08.318Z,11.70
2017-10-31T22:46:37.666Z,11.70
2017-10-31T22:49:05.962Z,11.70
2017-10-31T22:51:34.297Z,11.60
2017-10-31T22:54:02.670Z,11.70
2017-10-31T22:56:30.991Z,11.70
2017-10-31T22:59:00.430Z,11.70
2017-10-31T23:01:28.821Z,11.70
2017-10-31T23:03:57.887Z,11.70
2017-10-31T23:06:26.175Z,11.80
2017-10-31T23:08:54.511Z,11.80
2017-10-31T23:11:23.951Z,11.80
2017-10-31T23:13:52.234Z,11.90
2017-10-31T23:16:20.566Z,11.90
2017-10-31T23:18:48.958Z,11.90
2017-10-31T23:21:17.251Z,11.90
2017-10-31T23:23:45.618Z,11.90
2017-10-31T23:26:15.411Z,11.90
2017-10-31T23:28:43.687Z,11.90
2017-10-31T23:31:12.034Z,11.90
2017-10-31T23:33:49.604Z,11.90
2017-10-31T23:36:18.826Z,11.90
2017-10-31T23:38:47.881Z,12.00
2017-10-31T23:41:16.930Z,12.00
2017-10-31T23:43:45.648Z,12.00
2017-10-31T23:46:13.965Z,11.90
2017-10-31T23:48:42.255Z,12.00
2017-10-31T23:51:10.980Z,12.00
2017-10-31T23:53:40.020Z,11.90
2017-10-31T23:56:09.070Z,11.90
2017-10-31T23:58:38.535Z,11.90
